Time;durP1;ratioP1;P1;durP2;ratioP2;P2;SDS_P1;SDS_P2;PMS_P1;PMS_P2;Temp;Humidity;BMP_temperature;BMP_pressure;BME280_temperature;BME280_humidity;BME280_pressure;Samples;Min_cycle;Max_cycle;Signal;HPM_P1;HPM_P2
2022/01/08 00:01:46;;;;;;;6.53;3.38;;;;;;;;;;4967324;28;20479;-63
2022/01/08 00:04:14;;;;;;;6.15;2.90;;;;;;;;;;4969033;28;20459;-63
2022/01/08 00:06:41;;;;;;;4.40;3.03;;;;;;;;;;4966160;28;20142;-63
2022/01/08 00:09:07;;;;;;;6.22;3.17;;;;;;;;;;4966921;28;20209;-62
2022/01/08 00:11:35;;;;;;;5.18;3.03;;;;;;;;;;4966730;28;20538;-63
2022/01/08 00:14:04;;;;;;;4.97;2.67;;;;;;;;;;4969772;28;20114;-63
2022/01/08 00:16:33;;;;;;;4.38;3.30;;;;;;;;;;4971561;28;20138;-63
2022/01/08 00:18:59;;;;;;;5.13;3.53;;;;;;;;;;4964587;28;20047;-63
2022/01/08 00:21:27;;;;;;;7.45;3.30;;;;;;;;;;4969234;28;20555;-63
2022/01/08 00:23:54;;;;;;;6.53;3.63;;;;;;;;;;4965802;28;20150;-63
2022/01/08 00:26:20;;;;;;;4.72;3.15;;;;;;;;;;4971855;28;20129;-62
2022/01/08 00:28:47;;;;;;;4.78;2.92;;;;;;;;;;4969944;28;20074;-63
2022/01/08 00:31:14;;;;;;;5.35;3.28;;;;;;;;;;4965653;28;20558;-64
2022/01/08 00:33:40;;;;;;;4.85;2.50;;;;;;;;;;4968624;28;20105;-62
2022/01/08 00:36:07;;;;;;;5.38;2.75;;;;;;;;;;4971512;28;20532;-62
2022/01/08 00:38:35;;;;;;;5.30;2.90;;;;;;;;;;4972383;28;20077;-64
2022/01/08 00:41:02;;;;;;;5.00;3.00;;;;;;;;;;4968174;28;20082;-63
2022/01/08 00:43:28;;;;;;;4.25;2.40;;;;;;;;;;4950195;28;20078;-63
2022/01/08 00:45:55;;;;;;;5.00;2.63;;;;;;;;;;4967627;28;20158;-63
2022/01/08 00:48:22;;;;;;;4.85;3.08;;;;;;;;;;4973963;28;20778;-63
2022/01/08 00:50:49;;;;;;;4.22;2.60;;;;;;;;;;4967297;28;20046;-63
2022/01/08 00:53:16;;;;;;;4.47;2.75;;;;;;;;;;4969948;28;20043;-62
2022/01/08 00:55:44;;;;;;;4.03;2.08;;;;;;;;;;4965137;28;20435;-63
2022/01/08 00:58:11;;;;;;;4.30;2.55;;;;;;;;;;4971549;28;20157;-63
2022/01/08 01:00:37;;;;;;;4.30;2.58;;;;;;;;;;4971647;28;20035;-63
2022/01/08 01:03:04;;;;;;;4.30;2.33;;;;;;;;;;4964063;28;20066;-63
2022/01/08 01:05:31;;;;;;;4.03;2.50;;;;;;;;;;4969587;28;20081;-63
2022/01/08 01:07:57;;;;;;;8.63;2.40;;;;;;;;;;4973507;28;20137;-63
2022/01/08 01:10:24;;;;;;;4.63;2.33;;;;;;;;;;4967644;28;20047;-63
2022/01/08 01:12:52;;;;;;;5.35;2.47;;;;;;;;;;4968937;28;20074;-63
2022/01/08 01:15:19;;;;;;;4.40;2.38;;;;;;;;;;4964645;28;20129;-64
2022/01/08 01:17:47;;;;;;;5.05;2.25;;;;;;;;;;4969504;28;20046;-63
2022/01/08 01:20:15;;;;;;;4.55;2.30;;;;;;;;;;4972535;28;20104;-63
2022/01/08 01:22:54;;;;;;;3.85;2.53;;;;;;;;;;4971841;28;20050;-63
2022/01/08 01:25:26;;;;;;;4.53;2.45;;;;;;;;;;4952589;28;20075;-63
2022/01/08 01:28:08;;;;;;;4.35;2.00;;;;;;;;;;4952549;28;20137;-64
2022/01/08 01:42:10;;;;;;;3.75;2.20;;;;;;;;;;4967670;28;20394;-63
2022/01/08 01:47:30;;;;;;;4.88;2.50;;;;;;;;;;4962864;28;20528;-63
2022/01/08 01:49:56;;;;;;;4.55;2.55;;;;;;;;;;4962313;28;20137;-63
2022/01/08 01:52:23;;;;;;;4.00;2.30;;;;;;;;;;4974135;28;20121;-63
2022/01/08 01:54:50;;;;;;;5.13;2.42;;;;;;;;;;4966602;28;20097;-63
2022/01/08 01:57:17;;;;;;;6.50;2.80;;;;;;;;;;4950786;28;20149;-63
2022/01/08 01:59:45;;;;;;;4.78;2.47;;;;;;;;;;4961117;28;20632;-63
2022/01/08 02:02:12;;;;;;;4.35;2.38;;;;;;;;;;4967616;28;20063;-63
2022/01/08 02:04:38;;;;;;;4.28;2.60;;;;;;;;;;4961132;28;20047;-63
2022/01/08 02:07:05;;;;;;;5.25;2.72;;;;;;;;;;4962315;28;20070;-63
2022/01/08 02:09:37;;;;;;;4.90;2.92;;;;;;;;;;4963704;28;20102;-63
2022/01/08 02:12:06;;;;;;;4.75;2.60;;;;;;;;;;4957419;28;20051;-63
2022/01/08 02:14:34;;;;;;;5.20;2.75;;;;;;;;;;4955711;28;20051;-62
2022/01/08 02:17:04;;;;;;;6.22;3.28;;;;;;;;;;4962191;28;20432;-63
2022/01/08 02:19:31;;;;;;;7.55;3.60;;;;;;;;;;4960838;28;20229;-62
2022/01/08 02:22:00;;;;;;;8.25;3.17;;;;;;;;;;4964077;28;20761;-63
2022/01/08 02:24:28;;;;;;;5.10;2.67;;;;;;;;;;4965263;28;20042;-62
2022/01/08 02:26:55;;;;;;;5.38;2.58;;;;;;;;;;4959464;28;20078;-63
2022/01/08 02:29:23;;;;;;;4.82;2.95;;;;;;;;;;4962661;28;20055;-63
2022/01/08 02:31:55;;;;;;;5.20;2.90;;;;;;;;;;4957364;28;20086;-63
2022/01/08 02:34:21;;;;;;;5.10;2.80;;;;;;;;;;4958800;28;20539;-63
2022/01/08 02:36:48;;;;;;;5.30;2.97;;;;;;;;;;4957839;28;20141;-63
2022/01/08 02:39:16;;;;;;;6.28;2.88;;;;;;;;;;4954922;28;20106;-63
2022/01/08 02:41:42;;;;;;;6.07;2.63;;;;;;;;;;4960603;28;20078;-63
2022/01/08 02:44:10;;;;;;;5.72;3.05;;;;;;;;;;4959087;28;20051;-63
2022/01/08 02:46:38;;;;;;;4.70;2.63;;;;;;;;;;4956384;28;20086;-64
2022/01/08 02:49:05;;;;;;;5.57;2.95;;;;;;;;;;4956898;28;20118;-63
2022/01/08 02:51:34;;;;;;;6.18;3.28;;;;;;;;;;4960521;28;20075;-63
2022/01/08 02:54:00;;;;;;;6.63;2.92;;;;;;;;;;4963756;28;20539;-63
2022/01/08 02:56:29;;;;;;;5.65;2.72;;;;;;;;;;4957231;28;20074;-63
2022/01/08 02:58:55;;;;;;;6.03;2.97;;;;;;;;;;4965614;28;20039;-64
2022/01/08 03:01:22;;;;;;;5.30;2.45;;;;;;;;;;4962384;28;20133;-63
2022/01/08 03:03:48;;;;;;;4.75;2.60;;;;;;;;;;4963365;28;20098;-63
2022/01/08 03:06:15;;;;;;;5.13;2.75;;;;;;;;;;4943765;28;20142;-63
2022/01/08 03:08:41;;;;;;;4.13;2.28;;;;;;;;;;4961722;28;20066;-63
2022/01/08 03:11:08;;;;;;;5.68;2.58;;;;;;;;;;4960918;28;20077;-63
2022/01/08 03:13:36;;;;;;;4.20;2.13;;;;;;;;;;4965917;28;20484;-63
2022/01/08 03:16:03;;;;;;;3.58;2.08;;;;;;;;;;4961693;28;20074;-63
2022/01/08 03:18:29;;;;;;;4.75;2.10;;;;;;;;;;4963576;28;20121;-63
2022/01/08 03:21:13;;;;;;;3.60;1.98;;;;;;;;;;4966143;28;20129;-63
2022/01/08 03:23:46;;;;;;;4.35;2.05;;;;;;;;;;4965221;28;20101;-64
2022/01/08 03:26:13;;;;;;;4.15;2.35;;;;;;;;;;4964475;28;20039;-64
2022/01/08 03:28:41;;;;;;;3.30;1.60;;;;;;;;;;4964560;28;20070;-64
2022/01/08 03:31:08;;;;;;;6.60;2.13;;;;;;;;;;4949419;28;20058;-63
2022/01/08 03:33:34;;;;;;;3.90;1.90;;;;;;;;;;4960688;28;20483;-63
2022/01/08 03:36:01;;;;;;;3.60;1.85;;;;;;;;;;4968238;28;20118;-64
2022/01/08 03:38:27;;;;;;;4.10;2.38;;;;;;;;;;4962646;28;20067;-64
2022/01/08 03:40:54;;;;;;;4.28;2.15;;;;;;;;;;4963384;28;20070;-63
2022/01/08 03:43:21;;;;;;;3.15;1.80;;;;;;;;;;4964227;28;20062;-63
2022/01/08 03:45:48;;;;;;;3.25;2.10;;;;;;;;;;4962479;28;20482;-63
2022/01/08 03:48:28;;;;;;;5.60;2.08;;;;;;;;;;4962809;28;20058;-64
2022/01/08 03:50:56;;;;;;;3.30;1.45;;;;;;;;;;4966234;28;20055;-64
2022/01/08 03:53:22;;;;;;;3.22;1.52;;;;;;;;;;4962953;28;20530;-64
2022/01/08 03:55:49;;;;;;;2.47;1.58;;;;;;;;;;4965469;28;20539;-64
2022/01/08 03:58:15;;;;;;;3.78;1.83;;;;;;;;;;4961805;28;20141;-64
2022/01/08 04:00:42;;;;;;;3.13;1.67;;;;;;;;;;4966386;28;20114;-64
2022/01/08 04:03:10;;;;;;;3.55;1.73;;;;;;;;;;4962023;28;20146;-64
2022/01/08 04:05:36;;;;;;;3.40;1.58;;;;;;;;;;4967192;28;20432;-64
2022/01/08 04:08:03;;;;;;;4.18;1.65;;;;;;;;;;4963840;28;20108;-64
2022/01/08 04:10:30;;;;;;;2.80;1.70;;;;;;;;;;4962085;28;20075;-64
2022/01/08 04:13:02;;;;;;;3.25;1.60;;;;;;;;;;4965392;28;20767;-64
2022/01/08 04:15:36;;;;;;;3.50;1.25;;;;;;;;;;4964097;28;20034;-64
2022/01/08 04:18:03;;;;;;;2.60;1.08;;;;;;;;;;4963718;28;20043;-64
2022/01/08 04:20:31;;;;;;;3.70;1.60;;;;;;;;;;4968155;28;20705;-64
2022/01/08 04:22:58;;;;;;;3.35;1.17;;;;;;;;;;4970404;28;20097;-64
2022/01/08 04:25:25;;;;;;;2.05;1.10;;;;;;;;;;4964969;28;20097;-64
2022/01/08 04:27:52;;;;;;;1.88;0.95;;;;;;;;;;4966523;28;20109;-64
2022/01/08 04:30:18;;;;;;;1.67;0.85;;;;;;;;;;4962806;28;20142;-64
2022/01/08 04:32:45;;;;;;;2.75;0.82;;;;;;;;;;4964916;28;20066;-64
2022/01/08 04:35:12;;;;;;;1.60;0.75;;;;;;;;;;4961586;28;20070;-64
2022/01/08 04:37:40;;;;;;;1.65;0.73;;;;;;;;;;4963156;28;20093;-64
2022/01/08 04:40:07;;;;;;;4.43;0.93;;;;;;;;;;4958983;28;20047;-64
2022/01/08 04:42:34;;;;;;;1.23;0.52;;;;;;;;;;4966413;28;20058;-64
2022/01/08 04:45:00;;;;;;;3.13;0.70;;;;;;;;;;4969728;28;20105;-64
2022/01/08 04:47:27;;;;;;;1.83;0.70;;;;;;;;;;4961285;28;20079;-64
2022/01/08 04:49:53;;;;;;;0.85;0.55;;;;;;;;;;4961476;28;20133;-64
2022/01/08 04:52:20;;;;;;;1.30;0.60;;;;;;;;;;4965672;28;20454;-64
2022/01/08 04:54:48;;;;;;;1.05;0.60;;;;;;;;;;4969031;28;20133;-64
2022/01/08 04:57:14;;;;;;;2.22;0.60;;;;;;;;;;4962006;28;20146;-64
2022/01/08 04:59:41;;;;;;;0.40;0.40;;;;;;;;;;4957638;28;20075;-64
2022/01/08 05:02:07;;;;;;;1.70;0.40;;;;;;;;;;4961991;28;20043;-64
2022/01/08 05:04:34;;;;;;;2.85;0.90;;;;;;;;;;4969267;28;20070;-64
2022/01/08 05:07:01;;;;;;;3.22;0.63;;;;;;;;;;4967467;28;20077;-64
2022/01/08 05:09:27;;;;;;;1.15;0.57;;;;;;;;;;4963359;28;20442;-64
2022/01/08 05:11:55;;;;;;;0.65;0.25;;;;;;;;;;4963798;28;20067;-64
2022/01/08 05:14:22;;;;;;;0.85;0.30;;;;;;;;;;4963943;28;20555;-64
2022/01/08 05:16:56;;;;;;;0.22;0.22;;;;;;;;;;4960535;28;20043;-64
2022/01/08 05:19:31;;;;;;;0.90;0.40;;;;;;;;;;4963314;28;20035;-64
2022/01/08 05:21:58;;;;;;;2.83;0.50;;;;;;;;;;4966355;28;20046;-64
2022/01/08 05:24:25;;;;;;;1.02;0.30;;;;;;;;;;4965935;28;20050;-64
2022/01/08 05:26:52;;;;;;;0.82;0.50;;;;;;;;;;4965383;28;20043;-64
2022/01/08 05:29:19;;;;;;;1.05;0.50;;;;;;;;;;4961668;28;20067;-64
2022/01/08 05:31:48;;;;;;;0.47;0.30;;;;;;;;;;4967462;28;20120;-64
2022/01/08 05:34:15;;;;;;;0.77;0.40;;;;;;;;;;4963127;28;20054;-64
2022/01/08 05:36:41;;;;;;;0.80;0.30;;;;;;;;;;4963047;28;20613;-64
2022/01/08 05:39:08;;;;;;;1.30;0.52;;;;;;;;;;4967015;28;20070;-63
2022/01/08 05:41:34;;;;;;;2.30;0.40;;;;;;;;;;4957910;28;20118;-63
2022/01/08 05:44:01;;;;;;;0.50;0.32;;;;;;;;;;4961038;28;20086;-63
2022/01/08 05:46:29;;;;;;;0.60;0.25;;;;;;;;;;4959334;28;20483;-63
2022/01/08 05:49:00;;;;;;;0.68;0.35;;;;;;;;;;4958962;28;20066;-63
2022/01/08 05:51:27;;;;;;;3.15;0.60;;;;;;;;;;4964925;28;20416;-63
2022/01/08 05:53:53;;;;;;;1.25;0.40;;;;;;;;;;4966477;28;20102;-63
2022/01/08 05:56:21;;;;;;;1.27;0.50;;;;;;;;;;4958120;28;20066;-63
2022/01/08 05:58:47;;;;;;;1.35;0.45;;;;;;;;;;4960154;28;20046;-63
2022/01/08 06:01:14;;;;;;;0.57;0.40;;;;;;;;;;4959307;28;20082;-63
2022/01/08 06:03:42;;;;;;;1.25;0.50;;;;;;;;;;4962564;28;20118;-63
2022/01/08 06:06:10;;;;;;;0.98;0.50;;;;;;;;;;4962947;28;20051;-63
2022/01/08 06:08:36;;;;;;;0.77;0.32;;;;;;;;;;4963035;28;20078;-63
2022/01/08 06:11:03;;;;;;;2.33;0.50;;;;;;;;;;4962202;28;20082;-64
2022/01/08 06:13:29;;;;;;;0.95;0.50;;;;;;;;;;4964236;28;20085;-64
2022/01/08 06:15:56;;;;;;;0.85;0.45;;;;;;;;;;4962546;28;20455;-64
2022/01/08 06:18:23;;;;;;;3.72;0.70;;;;;;;;;;4961307;28;20063;-64
2022/01/08 06:20:51;;;;;;;0.85;0.43;;;;;;;;;;4965713;28;20090;-64
2022/01/08 06:23:18;;;;;;;1.00;0.40;;;;;;;;;;4963583;28;20464;-64
2022/01/08 06:25:44;;;;;;;0.93;0.70;;;;;;;;;;4962165;28;20090;-64
2022/01/08 06:28:11;;;;;;;2.00;0.40;;;;;;;;;;4961260;28;20142;-64
2022/01/08 06:30:38;;;;;;;1.02;0.52;;;;;;;;;;4963465;28;20055;-64
2022/01/08 06:33:04;;;;;;;3.55;0.90;;;;;;;;;;4961039;28;20082;-64
2022/01/08 06:35:31;;;;;;;1.17;0.50;;;;;;;;;;4960549;28;20129;-65
2022/01/08 06:37:59;;;;;;;0.70;0.57;;;;;;;;;;4962706;28;20078;-64
2022/01/08 06:40:25;;;;;;;1.77;0.57;;;;;;;;;;4962554;28;20070;-64
2022/01/08 06:42:52;;;;;;;0.88;0.70;;;;;;;;;;4961725;28;20504;-64
2022/01/08 06:45:18;;;;;;;1.85;0.68;;;;;;;;;;4962782;28;20090;-64
2022/01/08 06:47:45;;;;;;;3.67;0.57;;;;;;;;;;4959193;28;20123;-64
2022/01/08 06:50:12;;;;;;;3.03;0.80;;;;;;;;;;4957930;28;20047;-64
2022/01/08 06:52:38;;;;;;;2.00;1.00;;;;;;;;;;4959451;28;20070;-64
2022/01/08 06:55:08;;;;;;;2.63;1.00;;;;;;;;;;4966120;28;20165;-64
2022/01/08 06:57:35;;;;;;;1.88;1.00;;;;;;;;;;4962833;28;20047;-64
2022/01/08 07:00:03;;;;;;;4.97;1.00;;;;;;;;;;4964286;28;20047;-64
2022/01/08 07:02:29;;;;;;;1.95;0.90;;;;;;;;;;4962542;28;20051;-64
2022/01/08 07:04:56;;;;;;;1.63;0.80;;;;;;;;;;4966889;28;20070;-64
2022/01/08 07:07:24;;;;;;;1.92;1.10;;;;;;;;;;4963878;28;20047;-64
2022/01/08 07:09:51;;;;;;;3.42;1.00;;;;;;;;;;4966904;28;20050;-64
2022/01/08 07:12:18;;;;;;;2.58;1.33;;;;;;;;;;4968001;28;20054;-64
2022/01/08 07:14:45;;;;;;;1.90;1.00;;;;;;;;;;4965843;28;20084;-64
2022/01/08 07:17:12;;;;;;;3.30;1.02;;;;;;;;;;4959729;28;20411;-64
2022/01/08 07:19:38;;;;;;;4.03;1.00;;;;;;;;;;4965166;28;20138;-64
2022/01/08 07:22:05;;;;;;;2.50;1.27;;;;;;;;;;4961663;28;20137;-64
2022/01/08 07:24:31;;;;;;;2.92;1.20;;;;;;;;;;4966269;28;20097;-64
2022/01/08 07:26:58;;;;;;;2.67;1.20;;;;;;;;;;4963314;28;20094;-64
2022/01/08 07:29:26;;;;;;;3.88;1.35;;;;;;;;;;4969050;28;20090;-64
2022/01/08 07:31:52;;;;;;;3.35;1.33;;;;;;;;;;4966557;28;20067;-64
2022/01/08 07:34:19;;;;;;;1.83;0.95;;;;;;;;;;4966493;28;20583;-64
2022/01/08 07:36:45;;;;;;;2.88;1.10;;;;;;;;;;4966434;28;20127;-64
2022/01/08 07:39:12;;;;;;;2.53;1.30;;;;;;;;;;4963581;28;20125;-64
2022/01/08 07:41:38;;;;;;;3.88;1.75;;;;;;;;;;4964449;28;20144;-64
2022/01/08 07:44:06;;;;;;;1.85;1.00;;;;;;;;;;4965129;28;20066;-64
2022/01/08 07:46:33;;;;;;;2.20;0.82;;;;;;;;;;4946724;28;20074;-64
2022/01/08 07:49:00;;;;;;;3.33;1.48;;;;;;;;;;4960559;28;20062;-64
2022/01/08 07:51:27;;;;;;;2.95;1.30;;;;;;;;;;4963095;28;20070;-64
2022/01/08 07:53:53;;;;;;;1.77;1.10;;;;;;;;;;4965437;28;20091;-63
2022/01/08 07:56:20;;;;;;;2.10;1.10;;;;;;;;;;4963517;28;20461;-64
2022/01/08 07:58:46;;;;;;;1.65;0.85;;;;;;;;;;4966574;28;20115;-64
2022/01/08 08:01:13;;;;;;;1.30;0.82;;;;;;;;;;4963289;28;20071;-64
2022/01/08 08:03:41;;;;;;;1.30;0.90;;;;;;;;;;4965773;28;20062;-64
2022/01/08 08:06:10;;;;;;;2.58;0.88;;;;;;;;;;4961172;28;20070;-64
2022/01/08 08:08:37;;;;;;;1.83;1.08;;;;;;;;;;4964365;28;20082;-64
2022/01/08 08:11:04;;;;;;;1.77;0.95;;;;;;;;;;4961157;28;20062;-64
2022/01/08 08:13:30;;;;;;;1.60;0.80;;;;;;;;;;4967664;28;20039;-64
2022/01/08 08:15:57;;;;;;;1.85;1.10;;;;;;;;;;4966756;28;20128;-64
2022/01/08 08:18:23;;;;;;;2.20;1.10;;;;;;;;;;4964777;28;20086;-64
2022/01/08 08:20:51;;;;;;;2.40;1.48;;;;;;;;;;4968275;28;20105;-64
2022/01/08 08:23:18;;;;;;;2.97;1.30;;;;;;;;;;4963610;28;20079;-64
2022/01/08 08:25:44;;;;;;;1.38;0.85;;;;;;;;;;4965983;28;20075;-64
2022/01/08 08:28:11;;;;;;;2.20;1.20;;;;;;;;;;4964257;28;20111;-65
2022/01/08 08:30:38;;;;;;;2.35;1.30;;;;;;;;;;4966274;28;20050;-64
2022/01/08 08:33:05;;;;;;;3.58;1.70;;;;;;;;;;4960420;28;20106;-64
2022/01/08 08:35:32;;;;;;;1.83;1.13;;;;;;;;;;4968433;28;20433;-64
2022/01/08 08:38:00;;;;;;;2.67;1.30;;;;;;;;;;4965781;28;20125;-64
2022/01/08 08:40:27;;;;;;;1.83;0.95;;;;;;;;;;4947149;28;20134;-64
2022/01/08 08:42:54;;;;;;;1.88;1.00;;;;;;;;;;4961583;28;20089;-65
2022/01/08 08:45:21;;;;;;;2.88;1.20;;;;;;;;;;4965092;28;20093;-65
2022/01/08 08:47:47;;;;;;;10.43;3.97;;;;;;;;;;4961621;28;20055;-65
2022/01/08 08:50:15;;;;;;;3.10;1.45;;;;;;;;;;4960626;28;20066;-65
2022/01/08 08:52:42;;;;;;;4.03;1.80;;;;;;;;;;4963856;28;20122;-65
2022/01/08 08:55:13;;;;;;;2.63;1.23;;;;;;;;;;4967922;28;20093;-65
2022/01/08 08:57:40;;;;;;;1.95;1.00;;;;;;;;;;4964041;28;20058;-65
2022/01/08 09:00:07;;;;;;;3.15;1.60;;;;;;;;;;4963899;28;20474;-65
2022/01/08 09:02:34;;;;;;;1.35;0.80;;;;;;;;;;4964949;28;20071;-65
2022/01/08 09:05:01;;;;;;;1.02;0.57;;;;;;;;;;4963442;28;20047;-65
2022/01/08 09:07:28;;;;;;;1.23;0.70;;;;;;;;;;4966069;28;20043;-64
2022/01/08 09:09:54;;;;;;;2.97;1.10;;;;;;;;;;4963812;28;20148;-65
2022/01/08 09:12:22;;;;;;;1.85;1.08;;;;;;;;;;4965123;28;20506;-65
2022/01/08 09:14:49;;;;;;;1.73;1.00;;;;;;;;;;4969372;28;20042;-64
2022/01/08 09:17:16;;;;;;;1.52;0.80;;;;;;;;;;4964938;28;20047;-64
2022/01/08 09:19:43;;;;;;;2.28;0.90;;;;;;;;;;4964238;28;20071;-64
2022/01/08 09:22:10;;;;;;;1.40;0.90;;;;;;;;;;4960314;28;20078;-64
2022/01/08 09:24:37;;;;;;;1.30;0.65;;;;;;;;;;4961438;28;20184;-65
2022/01/08 09:27:04;;;;;;;2.00;1.00;;;;;;;;;;4960189;28;20519;-64
2022/01/08 09:29:33;;;;;;;1.58;1.05;;;;;;;;;;4967107;28;20078;-64
2022/01/08 09:31:59;;;;;;;4.43;1.70;;;;;;;;;;4961402;28;20138;-64
2022/01/08 09:34:26;;;;;;;2.50;1.10;;;;;;;;;;4963198;28;20050;-63
2022/01/08 09:36:53;;;;;;;2.42;1.10;;;;;;;;;;4967731;28;20087;-63
2022/01/08 09:39:19;;;;;;;1.40;0.98;;;;;;;;;;4959931;28;20463;-63
2022/01/08 09:41:46;;;;;;;3.05;0.98;;;;;;;;;;4964707;28;20531;-63
2022/01/08 09:44:13;;;;;;;1.45;0.82;;;;;;;;;;4963246;28;20093;-63
2022/01/08 09:46:41;;;;;;;1.63;0.88;;;;;;;;;;4963672;28;20556;-61
2022/01/08 09:49:08;;;;;;;1.77;0.80;;;;;;;;;;4962099;28;20066;-63
2022/01/08 09:51:34;;;;;;;0.88;0.60;;;;;;;;;;4967569;28;20465;-63
2022/01/08 09:54:02;;;;;;;0.93;0.75;;;;;;;;;;4964885;28;20081;-63
2022/01/08 09:56:31;;;;;;;1.77;1.30;;;;;;;;;;4963802;28;20047;-63
2022/01/08 09:58:58;;;;;;;1.90;0.98;;;;;;;;;;4959010;28;20051;-64
2022/01/08 10:01:26;;;;;;;1.33;0.90;;;;;;;;;;4960484;28;20078;-63
2022/01/08 10:03:55;;;;;;;2.78;1.40;;;;;;;;;;4960585;28;20464;-64
2022/01/08 10:06:23;;;;;;;4.55;1.33;;;;;;;;;;4964439;28;20058;-64
2022/01/08 10:08:50;;;;;;;3.33;1.50;;;;;;;;;;4960577;28;20464;-64
2022/01/08 10:11:20;;;;;;;2.50;1.20;;;;;;;;;;4957001;28;20066;-64
2022/01/08 10:13:48;;;;;;;4.20;1.30;;;;;;;;;;4959989;28;20460;-63
2022/01/08 10:19:02;;;;;;;2.93;1.80;;;;;;;;;;4959267;28;20054;-63
2022/01/08 10:21:30;;;;;;;5.57;1.58;;;;;;;;;;4963521;28;21212;-63
2022/01/08 10:23:59;;;;;;;4.25;2.28;;;;;;;;;;4962403;28;20137;-63
2022/01/08 10:26:31;;;;;;;2.15;1.23;;;;;;;;;;4960914;28;20492;-63
2022/01/08 10:28:58;;;;;;;2.42;1.60;;;;;;;;;;4965533;28;20466;-64
2022/01/08 10:31:27;;;;;;;2.80;1.70;;;;;;;;;;4963025;28;20547;-64
2022/01/08 10:33:56;;;;;;;2.58;1.80;;;;;;;;;;4945463;28;20083;-64
2022/01/08 10:36:28;;;;;;;4.32;2.15;;;;;;;;;;4963617;28;20133;-64
2022/01/08 10:38:56;;;;;;;2.67;1.48;;;;;;;;;;4966051;28;20047;-64
2022/01/08 10:41:24;;;;;;;3.55;1.60;;;;;;;;;;4964538;28;20070;-64
2022/01/08 10:44:06;;;;;;;4.35;2.20;;;;;;;;;;4964218;28;20303;-64
2022/01/08 10:46:34;;;;;;;3.58;2.00;;;;;;;;;;4962668;28;20051;-64
2022/01/08 10:49:00;;;;;;;4.97;2.53;;;;;;;;;;4964955;28;20077;-64
2022/01/08 10:51:34;;;;;;;3.95;1.88;;;;;;;;;;4965124;28;20140;-63
2022/01/08 10:54:08;;;;;;;3.40;1.83;;;;;;;;;;4968106;28;20093;-64
2022/01/08 10:56:37;;;;;;;5.78;2.35;;;;;;;;;;4963578;28;20411;-65
2022/01/08 10:59:06;;;;;;;5.30;2.45;;;;;;;;;;4967935;28;20082;-63
2022/01/08 11:01:48;;;;;;;5.38;2.30;;;;;;;;;;4967231;28;20074;-63
2022/01/08 11:04:17;;;;;;;3.70;2.28;;;;;;;;;;4962720;28;20046;-64
2022/01/08 11:06:56;;;;;;;4.53;2.75;;;;;;;;;;4965262;28;20441;-63
2022/01/08 11:09:23;;;;;;;5.30;2.55;;;;;;;;;;4962808;28;20082;-64
2022/01/08 11:11:51;;;;;;;3.72;2.20;;;;;;;;;;4963620;28;20070;-63
2022/01/08 11:17:06;;;;;;;5.50;2.03;;;;;;;;;;4967014;28;20066;-63
2022/01/08 11:19:34;;;;;;;4.07;2.35;;;;;;;;;;4967117;28;20519;-64
2022/01/08 11:22:02;;;;;;;4.35;2.20;;;;;;;;;;4962179;28;20070;-64
2022/01/08 11:24:30;;;;;;;4.30;2.08;;;;;;;;;;4961429;28;20082;-63
2022/01/08 11:26:58;;;;;;;4.32;1.85;;;;;;;;;;4966661;28;20079;-63
2022/01/08 11:29:26;;;;;;;2.47;1.40;;;;;;;;;;4963885;28;20075;-64
2022/01/08 11:31:56;;;;;;;3.00;1.63;;;;;;;;;;4963770;28;20081;-64
2022/01/08 11:34:25;;;;;;;3.53;1.48;;;;;;;;;;4966021;28;20066;-63
2022/01/08 11:36:52;;;;;;;3.92;2.05;;;;;;;;;;4965155;28;20049;-64
2022/01/08 11:39:24;;;;;;;3.58;1.67;;;;;;;;;;4967394;28;20051;-63
2022/01/08 11:41:52;;;;;;;3.08;1.92;;;;;;;;;;4969950;28;20074;-61
2022/01/08 11:44:19;;;;;;;2.70;1.67;;;;;;;;;;4962765;28;20095;-63
2022/01/08 11:46:46;;;;;;;4.60;2.38;;;;;;;;;;4961367;28;20082;-63
2022/01/08 11:49:13;;;;;;;6.18;1.70;;;;;;;;;;4967802;28;20074;-63
2022/01/08 11:51:40;;;;;;;3.20;1.65;;;;;;;;;;4969160;28;20046;-61
2022/01/08 11:54:06;;;;;;;7.75;1.70;;;;;;;;;;4966314;28;20137;-63
2022/01/08 11:56:37;;;;;;;4.90;1.75;;;;;;;;;;4965748;28;20043;-63
2022/01/08 11:59:06;;;;;;;3.35;1.30;;;;;;;;;;4965471;28;20579;-63
2022/01/08 12:01:33;;;;;;;3.20;1.60;;;;;;;;;;4960197;28;20047;-64
2022/01/08 12:03:59;;;;;;;4.13;1.80;;;;;;;;;;4968044;28;20047;-64
2022/01/08 12:06:39;;;;;;;5.50;1.92;;;;;;;;;;4968808;28;20074;-64
2022/01/08 12:09:22;;;;;;;11.80;2.05;;;;;;;;;;4964874;28;20105;-64
2022/01/08 12:12:00;;;;;;;3.15;1.95;;;;;;;;;;4967970;28;20053;-65
2022/01/08 12:14:28;;;;;;;2.67;1.40;;;;;;;;;;4959893;28;20086;-64
2022/01/08 12:16:56;;;;;;;2.95;1.83;;;;;;;;;;4967877;28;20443;-63
2022/01/08 12:19:35;;;;;;;2.78;1.80;;;;;;;;;;4962058;28;20062;-61
2022/01/08 12:22:23;;;;;;;5.00;1.60;;;;;;;;;;4962458;28;20067;-62
2022/01/08 12:24:51;;;;;;;4.43;1.90;;;;;;;;;;4966996;28;20046;-62
2022/01/08 12:27:49;;;;;;;4.47;1.52;;;;;;;;;;4961450;28;20047;-62
2022/01/08 12:30:37;;;;;;;5.20;1.73;;;;;;;;;;4965964;28;20058;-61
2022/01/08 12:33:18;;;;;;;5.50;1.80;;;;;;;;;;4955975;28;20054;-60
2022/01/08 12:35:45;;;;;;;3.22;1.80;;;;;;;;;;4961331;28;20139;-59
2022/01/08 12:38:24;;;;;;;2.38;1.45;;;;;;;;;;4965975;28;20035;-63
2022/01/08 12:40:51;;;;;;;3.75;1.67;;;;;;;;;;4960822;28;20193;-61
2022/01/08 12:43:34;;;;;;;2.25;1.20;;;;;;;;;;4963553;28;20061;-61
2022/01/08 12:46:17;;;;;;;3.55;1.40;;;;;;;;;;4963417;28;20046;-61
2022/01/08 12:49:14;;;;;;;4.65;1.67;;;;;;;;;;4960484;28;20047;-61
2022/01/08 12:51:45;;;;;;;7.75;3.80;;;;;;;;;;4956922;28;20126;-61
2022/01/08 12:54:13;;;;;;;5.15;2.45;;;;;;;;;;4961399;28;20139;-58
2022/01/08 12:56:46;;;;;;;6.38;1.70;;;;;;;;;;4962527;28;20070;-59
2022/01/08 12:59:14;;;;;;;6.28;2.03;;;;;;;;;;4960864;28;20139;-60
2022/01/08 13:01:42;;;;;;;2.65;1.40;;;;;;;;;;4961039;28;20079;-60
2022/01/08 13:04:15;;;;;;;3.83;2.50;;;;;;;;;;4962947;28;20145;-62
2022/01/08 13:06:43;;;;;;;3.28;1.00;;;;;;;;;;4957913;28;20121;-59
2022/01/08 13:09:10;;;;;;;5.57;1.27;;;;;;;;;;4963954;28;20078;-62
2022/01/08 13:11:38;;;;;;;3.25;1.30;;;;;;;;;;4963911;28;20133;-61
2022/01/08 13:14:06;;;;;;;3.33;1.13;;;;;;;;;;4964743;28;20113;-59
2022/01/08 13:16:37;;;;;;;2.83;1.30;;;;;;;;;;4965015;28;20136;-58
2022/01/08 13:19:05;;;;;;;2.90;1.15;;;;;;;;;;4965855;28;20511;-61
2022/01/08 13:21:33;;;;;;;6.30;1.42;;;;;;;;;;4966073;28;20051;-59
2022/01/08 13:24:01;;;;;;;2.35;1.40;;;;;;;;;;4963245;28;20055;-63
2022/01/08 13:26:36;;;;;;;3.67;1.10;;;;;;;;;;4959686;28;20543;-58
2022/01/08 13:29:12;;;;;;;11.65;1.75;;;;;;;;;;4961982;28;20082;-61
2022/01/08 13:31:41;;;;;;;10.02;1.67;;;;;;;;;;4964739;28;20066;-61
2022/01/08 13:34:08;;;;;;;1.98;1.13;;;;;;;;;;4958845;28;20066;-59
2022/01/08 13:36:35;;;;;;;5.22;1.92;;;;;;;;;;4959739;28;20082;-61
2022/01/08 13:39:02;;;;;;;6.28;2.30;;;;;;;;;;4960267;28;20070;-60
2022/01/08 13:41:33;;;;;;;5.75;2.47;;;;;;;;;;4958140;28;20051;-59
2022/01/08 13:44:01;;;;;;;4.22;1.42;;;;;;;;;;4955813;28;20129;-60
2022/01/08 13:46:30;;;;;;;5.07;1.10;;;;;;;;;;4957784;28;20146;-57
2022/01/08 13:48:58;;;;;;;4.53;1.40;;;;;;;;;;4960419;28;20050;-60
2022/01/08 13:51:26;;;;;;;3.88;1.35;;;;;;;;;;4959373;28;20072;-59
2022/01/08 13:53:58;;;;;;;6.43;1.65;;;;;;;;;;4960199;28;20463;-58
2022/01/08 13:56:25;;;;;;;3.80;1.73;;;;;;;;;;4961974;28;20106;-60
2022/01/08 13:58:52;;;;;;;9.68;1.67;;;;;;;;;;4957450;28;20149;-61
2022/01/08 14:01:18;;;;;;;5.40;1.85;;;;;;;;;;4961682;28;20078;-61
2022/01/08 14:03:46;;;;;;;8.68;2.00;;;;;;;;;;4964259;28;20154;-60
2022/01/08 14:06:24;;;;;;;2.25;1.08;;;;;;;;;;4962422;28;20626;-59
2022/01/08 14:08:55;;;;;;;2.20;1.17;;;;;;;;;;4963061;28;20133;-61
2022/01/08 14:11:22;;;;;;;2.38;1.17;;;;;;;;;;4963571;28;20130;-61
2022/01/08 14:13:53;;;;;;;4.43;1.83;;;;;;;;;;4963421;28;20066;-59
2022/01/08 14:16:27;;;;;;;3.92;1.30;;;;;;;;;;4963584;28;20122;-61
2022/01/08 14:18:53;;;;;;;3.45;1.60;;;;;;;;;;4962215;28;20136;-58
2022/01/08 14:21:23;;;;;;;3.85;1.20;;;;;;;;;;4963875;28;20114;-61
2022/01/08 14:23:50;;;;;;;3.85;1.35;;;;;;;;;;4967235;28;20113;-58
2022/01/08 14:26:18;;;;;;;9.40;4.35;;;;;;;;;;4966394;28;20039;-56
2022/01/08 14:29:00;;;;;;;6.70;2.38;;;;;;;;;;4966207;28;20121;-59
2022/01/08 14:31:30;;;;;;;4.22;2.15;;;;;;;;;;4965889;28;20110;-59
2022/01/08 14:34:04;;;;;;;4.75;2.20;;;;;;;;;;4969821;28;20062;-61
2022/01/08 14:36:48;;;;;;;4.10;2.15;;;;;;;;;;4970117;28;20047;-57
2022/01/08 14:39:16;;;;;;;6.30;1.73;;;;;;;;;;4965806;28;20073;-60
2022/01/08 14:41:45;;;;;;;4.53;1.95;;;;;;;;;;4963632;28;20039;-58
2022/01/08 14:44:12;;;;;;;2.70;1.10;;;;;;;;;;4966685;28;20065;-61
2022/01/08 14:46:47;;;;;;;4.55;1.23;;;;;;;;;;4968511;28;20066;-61
2022/01/08 14:49:13;;;;;;;6.45;2.00;;;;;;;;;;4969251;28;20062;-61
2022/01/08 14:51:41;;;;;;;3.13;1.38;;;;;;;;;;4967269;28;20082;-61
2022/01/08 14:54:08;;;;;;;4.95;2.35;;;;;;;;;;4970736;28;20407;-61
2022/01/08 14:56:36;;;;;;;4.10;2.28;;;;;;;;;;4967590;28;20054;-61
2022/01/08 14:59:02;;;;;;;3.40;2.20;;;;;;;;;;4967102;28;20145;-60
2022/01/08 15:01:29;;;;;;;7.38;2.83;;;;;;;;;;4962807;28;20078;-61
2022/01/08 15:03:55;;;;;;;4.07;2.28;;;;;;;;;;4967778;28;20098;-60
2022/01/08 15:06:22;;;;;;;9.45;4.82;;;;;;;;;;4967117;28;20132;-58
2022/01/08 15:08:50;;;;;;;9.95;4.47;;;;;;;;;;4967842;28;20074;-58
2022/01/08 15:11:16;;;;;;;23.13;9.68;;;;;;;;;;4965114;28;20487;-60